createdAt,value
2022-09-28T00:02:08.445Z,97.78
2022-09-28T00:05:12.825Z,98.20
2022-09-28T00:08:15.286Z,97.87
2022-09-28T00:11:19.822Z,95.90
2022-09-28T00:14:22.290Z,94.94
2022-09-28T00:17:26.596Z,94.42
2022-09-28T00:20:29.112Z,94.51
2022-09-28T00:23:32.019Z,95.54
2022-09-28T00:26:34.541Z,97.53
2022-09-28T00:29:37.608Z,97.47
2022-09-28T00:32:40.115Z,97.45
2022-09-28T00:35:45.241Z,97.46
2022-09-28T00:38:47.798Z,97.33
2022-09-28T00:41:50.718Z,97.37
2022-09-28T00:44:56.922Z,96.43
2022-09-28T00:48:00.436Z,96.56
2022-09-28T00:51:05.052Z,96.94
2022-09-28T00:54:08.085Z,93.92
2022-09-28T00:57:10.633Z,94.13
2022-09-28T01:00:14.466Z,94.20
2022-09-28T01:03:17.286Z,95.05
2022-09-28T01:06:24.271Z,95.22
2022-09-28T01:09:27.366Z,95.51
2022-09-28T01:12:30.423Z,93.85
2022-09-28T01:15:33.087Z,93.77
2022-09-28T01:18:40.165Z,95.36
2022-09-28T01:22:01.423Z,94.77
2022-09-28T01:25:11.465Z,94.25
2022-09-28T01:28:14.917Z,93.43
2022-09-28T01:31:17.772Z,92.76
2022-09-28T01:34:24.263Z,93.69
2022-09-28T01:37:32.828Z,92.00
2022-09-28T01:40:35.660Z,90.40
2022-09-28T01:43:39.653Z,89.28
2022-09-28T01:46:44.941Z,89.14
2022-09-28T01:49:49.861Z,89.22
2022-09-28T01:52:54.904Z,89.04
2022-09-28T01:56:00.467Z,90.31
2022-09-28T01:59:03.914Z,89.35
2022-09-28T02:02:10.232Z,89.46
2022-09-28T02:05:17.831Z,89.09
2022-09-28T02:08:27.002Z,89.67
2022-09-28T02:11:29.918Z,92.85
2022-09-28T02:14:32.503Z,93.66
2022-09-28T02:17:36.333Z,94.31
2022-09-28T02:20:39.058Z,94.90
2022-09-28T02:23:42.822Z,95.32
2022-09-28T02:26:45.901Z,95.71
2022-09-28T02:29:48.996Z,96.38
2022-09-28T02:32:53.721Z,96.50
2022-09-28T02:35:56.302Z,96.23
2022-09-28T02:39:01.294Z,95.46
2022-09-28T02:42:09.109Z,94.72
2022-09-28T02:45:15.876Z,94.34
2022-09-28T02:48:27.184Z,95.57
2022-09-28T02:51:49.554Z,95.75
2022-09-28T02:55:05.739Z,96.75
2022-09-28T02:58:27.644Z,97.23
2022-09-28T03:01:30.286Z,96.50
2022-09-28T03:04:52.192Z,96.33
2022-09-28T03:08:07.162Z,96.67
2022-09-28T03:11:13.281Z,95.43
2022-09-28T03:14:16.016Z,95.22
2022-09-28T03:17:20.602Z,95.00
2022-09-28T03:20:23.173Z,92.95
2022-09-28T03:23:26.304Z,93.45
2022-09-28T03:26:28.846Z,93.81
2022-09-28T03:29:33.232Z,93.08
2022-09-28T03:32:36.473Z,93.82
2022-09-28T03:35:39.359Z,93.71
2022-09-28T03:38:41.987Z,94.44
2022-09-28T03:41:46.059Z,95.20
2022-09-28T03:44:48.867Z,95.51
2022-09-28T03:47:52.015Z,95.63
2022-09-28T03:50:55.858Z,95.87
2022-09-28T03:53:59.266Z,95.68
2022-09-28T03:57:01.861Z,96.20
2022-09-28T04:00:05.416Z,96.39
2022-09-28T04:03:16.107Z,96.48
2022-09-28T04:06:19.260Z,96.60
2022-09-28T04:09:21.802Z,96.33
2022-09-28T04:12:24.829Z,93.44
2022-09-28T04:15:27.565Z,95.00
2022-09-28T04:18:30.520Z,94.89
2022-09-28T04:21:35.077Z,96.91
2022-09-28T04:24:38.394Z,97.88
2022-09-28T04:28:00.037Z,98.47
2022-09-28T04:31:03.160Z,97.95
2022-09-28T04:34:05.735Z,99.01
2022-09-28T04:37:08.969Z,99.57
2022-09-28T04:40:13.144Z,99.02
2022-09-28T04:43:15.972Z,99.01
2022-09-28T04:46:18.920Z,98.87
2022-09-28T04:49:22.729Z,98.69
2022-09-28T04:52:26.834Z,98.54
2022-09-28T04:55:32.499Z,98.43
2022-09-28T04:58:35.303Z,98.30
2022-09-28T05:01:38.570Z,98.02
2022-09-28T05:04:41.783Z,98.07
2022-09-28T05:07:46.201Z,97.31
2022-09-28T05:10:48.851Z,95.43
2022-09-28T05:13:51.742Z,95.55
2022-09-28T05:16:54.895Z,95.44
2022-09-28T05:19:59.194Z,94.37
2022-09-28T05:23:01.706Z,94.10
2022-09-28T05:26:04.831Z,94.05
2022-09-28T05:29:07.379Z,94.27
2022-09-28T05:32:10.778Z,94.53
2022-09-28T05:35:14.816Z,94.60
2022-09-28T05:38:17.770Z,94.37
2022-09-28T05:41:20.758Z,93.05
2022-09-28T05:44:23.689Z,90.54
2022-09-28T05:47:27.765Z,90.73
2022-09-28T05:50:30.581Z,90.38
2022-09-28T05:53:33.151Z,89.98
2022-09-28T05:56:36.103Z,89.42
2022-09-28T05:59:39.567Z,88.55
2022-09-28T06:02:42.543Z,88.45
2022-09-28T06:05:47.439Z,87.04
2022-09-28T06:08:50.200Z,85.83
2022-09-28T06:11:53.568Z,85.05
2022-09-28T06:14:58.042Z,84.75
2022-09-28T06:18:00.916Z,85.15
2022-09-28T06:21:06.003Z,85.75
2022-09-28T06:24:08.876Z,83.69
2022-09-28T06:27:11.688Z,83.47
2022-09-28T06:30:15.436Z,84.99
2022-09-28T06:33:18.204Z,87.91
2022-09-28T06:36:22.377Z,87.65
2022-09-28T06:39:25.041Z,88.54
2022-09-28T06:42:27.881Z,88.38
2022-09-28T06:45:36.499Z,88.67
2022-09-28T06:48:46.682Z,86.90
2022-09-28T06:51:49.771Z,83.58
2022-09-28T06:54:53.249Z,82.72
2022-09-28T10:01:03.357Z,64.32
2022-09-28T10:04:41.000Z,63.44
2022-09-28T10:26:35.170Z,59.04
2022-09-28T10:41:09.289Z,58.28
2022-09-28T10:49:05.087Z,58.29
2022-09-28T10:56:51.702Z,59.70
2022-09-28T11:15:20.063Z,56.74
2022-09-28T11:38:35.751Z,55.93
2022-09-28T11:45:16.834Z,54.87
2022-09-28T11:56:28.781Z,52.08
2022-09-28T12:17:07.319Z,47.02
2022-09-28T12:17:08.070Z,46.50
2022-09-28T12:20:31.913Z,46.20
2022-09-28T12:27:21.218Z,45.54
2022-09-28T12:30:40.882Z,44.77
2022-09-28T12:33:56.235Z,42.23
2022-09-28T12:37:18.410Z,43.03
2022-09-28T12:40:49.727Z,42.49
2022-09-28T12:43:54.843Z,43.56
2022-09-28T12:54:43.040Z,46.08
2022-09-28T12:58:48.689Z,48.12
2022-09-28T13:02:22.929Z,48.29
2022-09-28T13:06:10.279Z,43.31
2022-09-28T13:09:55.832Z,45.46
2022-09-28T13:28:27.138Z,55.90
2022-09-28T13:35:33.896Z,55.86
2022-09-28T13:38:17.617Z,54.72
2022-09-28T13:39:23.957Z,54.72
2022-09-28T13:53:24.114Z,53.03
2022-09-28T14:00:26.767Z,45.09
2022-09-28T14:07:40.093Z,48.19
2022-09-28T14:12:16.127Z,50.19
2022-09-28T14:15:58.870Z,50.05
2022-09-28T14:19:10.286Z,52.10
2022-09-28T14:26:42.901Z,52.99
2022-09-28T14:29:48.743Z,55.31
2022-09-28T14:33:24.738Z,55.40
2022-09-28T14:37:29.399Z,55.31
2022-09-28T14:45:21.288Z,54.18
2022-09-28T14:52:36.613Z,51.79
2022-09-28T15:00:07.178Z,55.49
2022-09-28T15:07:41.118Z,57.00
2022-09-28T15:10:55.490Z,59.03
2022-09-28T16:10:27.651Z,62.17
2022-09-28T16:39:47.401Z,62.03
2022-09-28T17:02:46.339Z,62.14
2022-09-28T17:06:17.868Z,62.36
2022-09-28T17:24:54.616Z,63.40
2022-09-28T17:28:31.874Z,62.12
2022-09-28T17:36:10.678Z,62.05
2022-09-28T17:39:49.913Z,62.96
2022-09-28T17:42:59.104Z,62.58
2022-09-28T17:50:09.042Z,62.45
2022-09-28T17:53:23.790Z,63.13
2022-09-28T17:56:57.621Z,62.75
2022-09-28T18:00:29.781Z,63.02
2022-09-28T18:08:00.548Z,62.26
2022-09-28T18:11:16.095Z,62.96
2022-09-28T18:14:29.351Z,63.10
2022-09-28T18:17:51.965Z,63.80
2022-09-28T18:21:20.420Z,65.75
2022-09-28T18:28:18.958Z,67.82
2022-09-28T18:31:29.026Z,68.81
2022-09-28T18:34:46.340Z,70.16
2022-09-28T18:38:15.009Z,72.02
2022-09-28T18:41:24.346Z,71.74
2022-09-28T18:51:29.705Z,74.93
2022-09-28T19:06:52.029Z,77.19
2022-09-28T19:09:57.327Z,78.95
2022-09-28T19:28:27.309Z,83.60
2022-09-28T19:50:56.605Z,84.47
2022-09-28T20:05:45.173Z,83.48
2022-09-28T22:28:43.617Z,89.61
